Airport View

Enter AWOS ICAO identifier for current METAR.

ex. KFNL

PABT 212253Z 18005KT 6SM -RA BCFG SCT005 OVC011 04/03 A2942 RMK AO2 SLP973 FGBANK N P0002 T00440033

21 Sep 2019 23:25

Frequency: 135.45

Phone: 907-692-5900

Other Area AWOS: PAKP - PAIM

TAF PABT 211724Z 2118/2218 23004KT P6SM -RASN FEW005 BKN025 OVC045 FM220700 30004KT P6SM SCT020 BKN050 FM221600 05004KT P6SM SCT050 SCT100